createdAt,value
2023-02-22T00:00:16.768Z,0
2023-02-22T00:01:17.253Z,0
2023-02-22T00:02:16.930Z,0
2023-02-22T00:03:16.732Z,0
2023-02-22T00:04:16.716Z,0
2023-02-22T00:05:17.082Z,0
2023-02-22T00:06:16.401Z,0
2023-02-22T00:07:16.458Z,0
2023-02-22T00:08:16.368Z,0
2023-02-22T00:09:16.131Z,0
2023-02-22T00:10:16.401Z,0
2023-02-22T00:11:17.496Z,0
2023-02-22T00:12:16.568Z,0
2023-02-22T00:13:16.585Z,0
2023-02-22T00:14:16.299Z,0
2023-02-22T00:15:16.280Z,0
2023-02-22T00:16:16.554Z,0
2023-02-22T00:17:16.583Z,0
2023-02-22T00:18:15.990Z,0
2023-02-22T00:19:16.478Z,0
2023-02-22T00:20:17.806Z,0
2023-02-22T00:21:17.345Z,0
2023-02-22T00:22:16.453Z,0
2023-02-22T00:23:16.700Z,0
2023-02-22T00:24:16.535Z,0
2023-02-22T00:25:16.137Z,0
2023-02-22T00:26:16.381Z,0
2023-02-22T00:27:16.365Z,0
2023-02-22T00:28:16.110Z,0
2023-02-22T00:29:16.583Z,0
2023-02-22T00:30:16.717Z,0
2023-02-22T00:31:16.719Z,0
2023-02-22T00:32:17.053Z,0
2023-02-22T00:33:16.542Z,0
2023-02-22T00:34:16.014Z,0
2023-02-22T00:35:16.239Z,0
2023-02-22T00:36:15.974Z,0
2023-02-22T00:37:16.587Z,0
2023-02-22T00:38:15.955Z,0
2023-02-22T00:39:15.936Z,0
2023-02-22T00:40:15.905Z,0
2023-02-22T00:41:16.476Z,0
2023-02-22T00:42:16.144Z,0
2023-02-22T00:43:16.124Z,0
2023-02-22T00:44:16.361Z,0
2023-02-22T00:45:16.341Z,0
2023-02-22T00:46:16.778Z,0
2023-02-22T00:47:16.320Z,0
2023-02-22T00:48:16.330Z,0
2023-02-22T00:49:16.364Z,0
2023-02-22T00:50:16.015Z,0
2023-02-22T00:51:16.873Z,0
2023-02-22T00:52:15.992Z,0
2023-02-22T00:53:16.320Z,0
2023-02-22T00:54:15.953Z,0
2023-02-22T00:55:16.215Z,0
2023-02-22T00:56:15.661Z,0
2023-02-22T00:57:17.652Z,0
2023-02-22T00:58:15.706Z,0
2023-02-22T00:59:15.642Z,0
2023-02-22T01:00:15.867Z,0
2023-02-22T01:01:16.451Z,0
2023-02-22T01:02:16.493Z,0
2023-02-22T01:03:16.125Z,0
2023-02-22T01:04:15.717Z,0
2023-02-22T01:05:15.541Z,0
2023-02-22T01:06:15.539Z,0
2023-02-22T01:07:16.014Z,0
2023-02-22T01:08:15.790Z,0
2023-02-22T01:09:16.212Z,0
2023-02-22T01:10:15.713Z,0
2023-02-22T01:11:16.188Z,0
2023-02-22T01:12:15.985Z,0
2023-02-22T01:13:16.184Z,0
2023-02-22T01:14:15.933Z,0
2023-02-22T01:15:15.664Z,0
2023-02-22T01:16:15.826Z,0
2023-02-22T01:17:15.368Z,0
2023-02-22T01:18:15.665Z,0
2023-02-22T01:19:15.627Z,0
2023-02-22T01:20:15.855Z,0
2023-02-22T01:21:15.438Z,0
2023-02-22T01:22:15.053Z,0
2023-02-22T01:23:15.913Z,0
2023-02-22T01:24:15.763Z,0
2023-02-22T01:25:15.861Z,0
2023-02-22T01:26:15.620Z,0
2023-02-22T01:27:15.223Z,0
2023-02-22T01:28:15.756Z,0
2023-02-22T01:29:15.696Z,0
2023-02-22T01:30:15.908Z,0
2023-02-22T01:31:16.439Z,0
2023-02-22T01:32:16.001Z,0
2023-02-22T01:33:47.226Z,0
2023-02-22T01:34:15.648Z,0
2023-02-22T01:35:15.278Z,0
2023-02-22T01:36:15.117Z,0
2023-02-22T01:37:15.105Z,0
2023-02-22T01:38:15.101Z,0
2023-02-22T01:39:15.561Z,0
2023-02-22T01:40:15.549Z,0
2023-02-22T01:41:15.919Z,0
2023-02-22T01:42:15.605Z,0
2023-02-22T01:43:14.991Z,0
2023-02-22T01:44:15.477Z,0
2023-02-22T01:45:15.469Z,0
2023-02-22T01:46:15.235Z,0
2023-02-22T01:47:15.300Z,0
2023-02-22T01:48:14.915Z,0
2023-02-22T01:49:15.184Z,0
2023-02-22T01:50:15.413Z,0
2023-02-22T01:51:16.072Z,0
2023-02-22T01:52:14.615Z,0
2023-02-22T01:53:15.387Z,0
2023-02-22T01:54:14.868Z,0
2023-02-22T01:55:15.080Z,0
2023-02-22T01:56:15.058Z,0
2023-02-22T01:57:15.403Z,0
2023-02-22T01:58:14.524Z,0
2023-02-22T01:59:14.789Z,0
2023-02-22T02:00:15.249Z,0
2023-02-22T02:01:14.999Z,0
2023-02-22T02:02:14.960Z,0
2023-02-22T02:03:14.966Z,0
2023-02-22T02:04:15.324Z,0
2023-02-22T02:05:15.349Z,0
2023-02-22T02:06:14.929Z,0
2023-02-22T02:07:14.933Z,0
2023-02-22T02:08:14.370Z,0
2023-02-22T02:09:14.936Z,0
2023-02-22T02:10:14.599Z,0
2023-02-22T02:11:18.456Z,0
2023-02-22T02:12:14.569Z,0
2023-02-22T02:13:15.173Z,0
2023-02-22T02:14:14.550Z,0
2023-02-22T02:15:14.263Z,0
2023-02-22T02:16:14.514Z,0
2023-02-22T02:17:14.979Z,0
2023-02-22T02:18:15.010Z,0
2023-02-22T02:19:14.458Z,0
2023-02-22T02:20:14.960Z,0
2023-02-22T02:21:14.910Z,0
2023-02-22T02:22:14.684Z,0
2023-02-22T02:23:14.917Z,0
2023-02-22T02:24:15.078Z,0
2023-02-22T02:25:14.428Z,0
2023-02-22T02:26:14.880Z,0
2023-02-22T02:27:14.348Z,0
2023-02-22T02:28:14.851Z,0
2023-02-22T02:29:14.925Z,0
2023-02-22T02:30:14.889Z,0
2023-02-22T02:31:14.432Z,0
2023-02-22T02:32:14.893Z,0
2023-02-22T02:33:14.522Z,0
2023-02-22T02:34:14.267Z,0
2023-02-22T02:35:14.243Z,0
2023-02-22T02:36:14.259Z,0
2023-02-22T02:37:13.949Z,0
2023-02-22T02:38:14.206Z,0
2023-02-22T02:39:14.691Z,0
2023-02-22T02:40:15.005Z,0
2023-02-22T02:41:14.427Z,0
2023-02-22T02:42:14.639Z,0
2023-02-22T02:43:14.656Z,0
2023-02-22T02:44:14.108Z,0
2023-02-22T02:45:14.696Z,0
2023-02-22T02:46:14.601Z,0
2023-02-22T02:47:14.080Z,0
2023-02-22T02:48:14.417Z,0
2023-02-22T02:49:14.064Z,0
2023-02-22T02:50:14.554Z,0
2023-02-22T02:51:14.088Z,0
2023-02-22T02:52:14.492Z,0
2023-02-22T02:53:14.476Z,0
2023-02-22T02:54:14.240Z,0
2023-02-22T02:55:14.223Z,0
2023-02-22T02:56:14.449Z,0
2023-02-22T02:57:13.965Z,0
2023-02-22T02:58:14.418Z,0
2023-02-22T02:59:14.403Z,0
2023-02-22T03:00:14.144Z,0
2023-02-22T03:01:14.671Z,0
2023-02-22T03:02:14.384Z,0
2023-02-22T03:03:13.902Z,0
2023-02-22T03:04:14.323Z,0
2023-02-22T03:05:14.309Z,0
2023-02-22T03:06:14.498Z,0
2023-02-22T03:07:15.222Z,0
2023-02-22T03:08:14.736Z,0
2023-02-22T03:09:14.992Z,0
2023-02-22T03:10:14.782Z,0
2023-02-22T03:11:14.677Z,0
2023-02-22T03:12:14.431Z,0
2023-02-22T03:13:14.945Z,0
2023-02-22T03:14:14.665Z,0
2023-02-22T03:15:14.618Z,0
2023-02-22T03:16:14.942Z,0
2023-02-22T03:17:15.036Z,0
2023-02-22T03:18:14.593Z,0
2023-02-22T03:19:14.295Z,0
2023-02-22T03:20:14.581Z,0
2023-02-22T03:21:15.165Z,0
2023-02-22T03:22:14.524Z,0
2023-02-22T03:23:14.249Z,0
2023-02-22T03:24:14.372Z,0
2023-02-22T03:25:14.217Z,0
2023-02-22T03:26:14.712Z,0
2023-02-22T03:27:14.473Z,0
2023-02-22T03:28:14.741Z,0
2023-02-22T03:29:14.777Z,0
2023-02-22T03:30:15.050Z,0
2023-02-22T03:31:14.921Z,0
2023-02-22T03:32:14.127Z,0
2023-02-22T03:49:28.402Z,0
2023-02-22T03:50:27.480Z,0
2023-02-22T03:51:28.383Z,0
2023-02-22T03:52:28.313Z,0
2023-02-22T03:53:27.423Z,0
2023-02-22T03:54:27.924Z,0
2023-02-22T03:55:27.919Z,0
2023-02-22T03:56:28.157Z,0
2023-02-22T03:57:27.884Z,0
2023-02-22T03:58:27.859Z,0
2023-02-22T03:59:27.756Z,0
2023-02-22T04:00:27.882Z,0
2023-02-22T04:01:27.935Z,0
2023-02-22T04:02:27.839Z,0
2023-02-22T04:03:27.958Z,0
2023-02-22T04:04:27.710Z,0
2023-02-22T04:05:28.190Z,0
2023-02-22T04:06:28.005Z,0
2023-02-22T04:07:27.695Z,0
2023-02-22T04:08:27.700Z,0
2023-02-22T04:09:27.460Z,0
2023-02-22T04:10:27.413Z,0
2023-02-22T04:11:27.894Z,0
2023-02-22T04:12:27.626Z,0
2023-02-22T04:13:27.867Z,0
2023-02-22T04:14:31.749Z,0
2023-02-22T04:15:27.593Z,0
2023-02-22T04:16:27.694Z,0
2023-02-22T04:17:27.052Z,0
2023-02-22T04:18:27.798Z,0
2023-02-22T04:19:27.544Z,0
2023-02-22T04:20:27.910Z,0
2023-02-22T04:21:28.379Z,0
2023-02-22T04:22:27.765Z,0
2023-02-22T04:23:27.223Z,0
2023-02-22T04:24:27.722Z,0
2023-02-22T04:25:27.780Z,0
2023-02-22T04:26:27.186Z,0
2023-02-22T04:27:27.407Z,0
2023-02-22T04:28:27.395Z,0
2023-02-22T04:29:27.642Z,0
2023-02-22T04:30:27.673Z,0
2023-02-22T04:31:28.171Z,0
2023-02-22T04:32:27.523Z,0
2023-02-22T04:33:27.323Z,0
2023-02-22T04:34:27.544Z,0
2023-02-22T04:35:27.315Z,0
2023-02-22T04:36:27.284Z,0
2023-02-22T04:37:27.724Z,0
2023-02-22T04:38:26.979Z,0
2023-02-22T04:39:27.421Z,0
2023-02-22T04:40:27.503Z,0
2023-02-22T04:41:30.008Z,0
2023-02-22T04:42:27.170Z,0
2023-02-22T04:43:26.655Z,0
2023-02-22T04:44:26.928Z,0
2023-02-22T04:45:26.919Z,0
2023-02-22T04:46:27.659Z,0
2023-02-22T04:47:28.038Z,0
2023-02-22T04:48:27.776Z,0
2023-02-22T04:49:27.507Z,0
2023-02-22T04:50:27.794Z,0
2023-02-22T04:51:28.128Z,0
2023-02-22T04:52:27.682Z,0
2023-02-22T04:53:28.146Z,0
2023-02-22T04:54:27.783Z,0
2023-02-22T04:55:27.538Z,0
2023-02-22T04:56:28.018Z,0
2023-02-22T04:57:27.729Z,0
2023-02-22T04:58:27.418Z,0
2023-02-22T04:59:27.955Z,0
2023-02-22T05:00:27.390Z,0
2023-02-22T05:01:27.826Z,0
2023-02-22T05:02:28.101Z,0
2023-02-22T05:03:27.876Z,0
2023-02-22T05:04:27.888Z,0
2023-02-22T05:05:27.343Z,0
2023-02-22T05:06:27.564Z,0
2023-02-22T05:07:27.335Z,0
2023-02-22T05:08:27.532Z,0
2023-02-22T05:09:27.890Z,0
2023-02-22T05:10:27.020Z,0
2023-02-22T05:11:27.981Z,0
2023-02-22T05:12:27.520Z,0
2023-02-22T05:13:27.474Z,0
2023-02-22T05:14:27.739Z,0
2023-02-22T05:15:27.747Z,0
2023-02-22T05:16:27.832Z,0
2023-02-22T05:17:27.152Z,0
2023-02-22T05:18:27.152Z,0
2023-02-22T05:19:27.131Z,0
2023-02-22T05:20:29.205Z,0
2023-02-22T05:21:27.765Z,0
2023-02-22T05:22:27.341Z,0
2023-02-22T05:23:27.069Z,0
2023-02-22T05:24:27.328Z,0
2023-02-22T05:25:27.848Z,0
2023-02-22T05:26:27.341Z,0
2023-02-22T05:27:27.274Z,0
2023-02-22T05:28:27.260Z,0
2023-02-22T05:29:27.000Z,0
2023-02-22T05:30:27.207Z,0
2023-02-22T05:31:28.313Z,0
2023-02-22T05:32:27.238Z,0
2023-02-22T05:33:26.909Z,0
2023-02-22T05:34:27.172Z,0
2023-02-22T05:35:27.412Z,0
2023-02-22T05:36:27.135Z,0
2023-02-22T05:37:27.384Z,0
2023-02-22T05:38:27.155Z,0
2023-02-22T05:39:27.455Z,0
2023-02-22T05:40:27.073Z,0
2023-02-22T05:41:27.861Z,0
2023-02-22T05:42:27.038Z,0
2023-02-22T05:43:26.767Z,0
2023-02-22T05:44:27.028Z,0
2023-02-22T05:45:27.259Z,0
2023-02-22T05:46:26.874Z,0
2023-02-22T05:47:27.217Z,0
2023-02-22T05:48:29.718Z,0
2023-02-22T05:49:26.938Z,0
2023-02-22T05:50:26.980Z,0
2023-02-22T05:51:26.869Z,0
2023-02-22T05:52:26.655Z,0
2023-02-22T05:53:26.675Z,0
2023-02-22T05:54:27.154Z,0
2023-02-22T05:55:27.107Z,0
2023-02-22T05:56:26.834Z,0
2023-02-22T05:57:27.215Z,0
2023-02-22T05:58:26.816Z,0
2023-02-22T05:59:27.044Z,0
2023-02-22T06:00:26.560Z,0
2023-02-22T06:01:27.609Z,0
2023-02-22T06:02:26.838Z,0
2023-02-22T06:03:26.737Z,0
2023-02-22T06:04:26.741Z,0
2023-02-22T06:05:27.269Z,0
2023-02-22T06:06:28.882Z,0
2023-02-22T06:07:26.938Z,0
2023-02-22T06:08:26.690Z,0
2023-02-22T06:09:26.895Z,5
2023-02-22T06:10:26.127Z,5
2023-02-22T06:11:27.281Z,5
2023-02-22T06:12:26.604Z,5
2023-02-22T06:13:26.966Z,5
2023-02-22T06:14:26.592Z,5
2023-02-22T06:15:26.581Z,5
2023-02-22T06:16:27.026Z,5
2023-02-22T06:17:28.631Z,10
2023-02-22T06:18:26.961Z,10
2023-02-22T06:19:26.941Z,10
2023-02-22T06:20:27.494Z,10
2023-02-22T06:21:27.773Z,15
2023-02-22T06:22:27.150Z,15
2023-02-22T06:23:27.164Z,15
2023-02-22T06:24:27.105Z,20
2023-02-22T06:25:27.371Z,20
2023-02-22T06:26:27.342Z,20
2023-02-22T06:27:27.325Z,20
2023-02-22T06:28:27.062Z,20
2023-02-22T06:29:27.460Z,20
2023-02-22T06:30:27.273Z,25
2023-02-22T06:31:28.209Z,25
2023-02-22T06:32:27.041Z,25
2023-02-22T06:33:27.297Z,30
2023-02-22T06:34:27.244Z,30
2023-02-22T06:35:26.750Z,30
2023-02-22T06:36:26.974Z,30
2023-02-22T06:37:27.236Z,30
2023-02-22T06:38:27.258Z,35
2023-02-22T06:39:27.149Z,35
2023-02-22T06:40:26.675Z,35
2023-02-22T06:41:27.515Z,35
2023-02-22T06:42:27.550Z,35
2023-02-22T06:43:26.584Z,35
2023-02-22T06:44:26.558Z,35
2023-02-22T06:45:27.441Z,40
2023-02-22T06:46:26.288Z,40
2023-02-22T06:47:27.057Z,40
2023-02-22T06:48:27.017Z,40
2023-02-22T06:49:27.020Z,40
2023-02-22T06:50:27.015Z,40
2023-02-22T06:51:27.440Z,40
2023-02-22T06:52:26.957Z,40
2023-02-22T06:53:26.218Z,45
2023-02-22T06:54:26.179Z,45
2023-02-22T06:55:26.453Z,45
2023-02-22T06:56:26.647Z,45
2023-02-22T06:57:26.379Z,45
2023-02-22T06:58:26.919Z,45
2023-02-22T06:59:26.862Z,45
2023-02-22T07:00:26.582Z,50
2023-02-22T07:01:27.899Z,50
2023-02-22T07:02:26.321Z,50
2023-02-22T07:03:26.548Z,50
2023-02-22T07:04:26.551Z,55
2023-02-22T07:05:26.549Z,60
2023-02-22T07:06:26.245Z,55
2023-02-22T07:07:26.493Z,55
2023-02-22T07:08:26.476Z,55
2023-02-22T07:09:26.721Z,55
2023-02-22T07:10:26.205Z,55
2023-02-22T07:11:26.691Z,55
2023-02-22T07:12:26.415Z,55
2023-02-22T07:13:26.427Z,55
2023-02-22T07:14:26.144Z,55
2023-02-22T07:15:26.625Z,55
2023-02-22T07:16:26.725Z,55
2023-02-22T07:17:26.713Z,55
2023-02-22T07:18:26.076Z,55
2023-02-22T07:19:26.585Z,55
2023-02-22T07:20:26.541Z,55
2023-02-22T07:21:26.670Z,55
2023-02-22T07:22:26.524Z,55
2023-02-22T07:23:26.004Z,60
2023-02-22T07:24:25.975Z,60
2023-02-22T07:25:26.472Z,60
2023-02-22T07:26:26.228Z,60
2023-02-22T07:27:26.451Z,60
2023-02-22T07:28:25.924Z,60
2023-02-22T07:29:26.165Z,60
2023-02-22T07:30:26.297Z,60
2023-02-22T07:31:28.815Z,65
2023-02-22T07:32:27.065Z,65
2023-02-22T07:33:26.987Z,75
2023-02-22T07:34:26.337Z,80
2023-02-22T07:35:26.064Z,85
2023-02-22T07:36:26.321Z,85
2023-02-22T07:37:26.044Z,75
2023-02-22T07:38:26.296Z,75
2023-02-22T07:39:26.083Z,75
2023-02-22T07:40:25.740Z,75
2023-02-22T07:41:26.711Z,70
2023-02-22T07:42:26.240Z,70
2023-02-22T07:43:25.708Z,70
2023-02-22T07:44:25.932Z,70
2023-02-22T07:45:25.713Z,75
2023-02-22T07:46:25.649Z,75
2023-02-22T07:47:25.904Z,75
2023-02-22T07:48:27.012Z,75
2023-02-22T07:49:26.228Z,75
2023-02-22T07:50:26.104Z,80
2023-02-22T07:51:26.098Z,80
2023-02-22T07:52:26.061Z,80
2023-02-22T07:53:27.232Z,80
2023-02-22T07:54:25.801Z,85
2023-02-22T07:55:25.531Z,85
2023-02-22T07:56:25.795Z,90
2023-02-22T07:57:25.737Z,95
2023-02-22T07:58:25.762Z,100
2023-02-22T07:59:25.445Z,100
2023-02-22T08:00:25.440Z,95
2023-02-22T08:01:26.858Z,100
2023-02-22T08:02:25.937Z,100
2023-02-22T08:03:26.056Z,90
2023-02-22T08:04:25.147Z,95
2023-02-22T08:05:25.999Z,90
2023-02-22T08:06:25.960Z,85
2023-02-22T08:07:25.600Z,85
2023-02-22T08:08:28.417Z,85
2023-02-22T08:09:25.567Z,80
2023-02-22T08:10:25.312Z,80
2023-02-22T08:11:26.646Z,80
2023-02-22T08:12:25.549Z,85
2023-02-22T08:13:25.687Z,90
2023-02-22T08:14:25.745Z,85
2023-02-22T08:15:25.004Z,95
2023-02-22T08:16:25.494Z,90
2023-02-22T08:17:25.484Z,85
2023-02-22T08:18:25.745Z,85
2023-02-22T08:19:25.433Z,80
2023-02-22T08:20:25.715Z,80
2023-02-22T08:21:26.561Z,80
2023-02-22T08:22:27.840Z,80
2023-02-22T08:23:25.503Z,85
2023-02-22T08:24:25.618Z,90
2023-02-22T08:25:25.108Z,95
2023-02-22T08:26:25.371Z,90
2023-02-22T08:27:25.101Z,85
2023-02-22T08:28:25.064Z,85
2023-02-22T08:29:25.365Z,95
2023-02-22T08:30:25.689Z,90
2023-02-22T08:31:26.572Z,90
2023-02-22T08:32:26.566Z,85
2023-02-22T08:33:26.177Z,85
2023-02-22T08:34:25.258Z,90
2023-02-22T08:35:24.987Z,90
2023-02-22T08:36:25.439Z,90
2023-02-22T08:37:25.573Z,95
2023-02-22T08:38:25.420Z,100
2023-02-22T08:39:24.888Z,110
2023-02-22T08:40:25.381Z,120
2023-02-22T08:41:26.070Z,120
2023-02-22T08:42:25.126Z,130
2023-02-22T08:43:25.444Z,120
2023-02-22T08:44:25.098Z,110
2023-02-22T08:45:25.363Z,100
2023-02-22T08:46:25.387Z,110
2023-02-22T08:47:25.344Z,115
2023-02-22T08:48:25.102Z,110
2023-02-22T08:49:25.026Z,120
2023-02-22T08:50:24.601Z,120
2023-02-22T08:51:27.694Z,140
2023-02-22T08:52:25.029Z,155
2023-02-22T08:53:25.384Z,155
2023-02-22T08:54:24.972Z,160
2023-02-22T08:55:24.666Z,155
2023-02-22T08:56:24.912Z,150
2023-02-22T08:57:27.342Z,155
2023-02-22T08:58:24.637Z,160
2023-02-22T08:59:24.619Z,135
2023-02-22T09:00:25.361Z,115
2023-02-22T09:01:41.220Z,110
2023-02-22T09:02:24.914Z,115
2023-02-22T09:03:25.556Z,115
2023-02-22T09:04:25.099Z,130
2023-02-22T09:05:25.088Z,135
2023-02-22T09:06:24.936Z,130
2023-02-22T09:07:24.273Z,120
2023-02-22T09:08:25.026Z,110
2023-02-22T09:09:25.168Z,110
2023-02-22T09:10:24.561Z,105
2023-02-22T09:11:25.148Z,105
2023-02-22T09:12:24.768Z,100
2023-02-22T09:13:24.953Z,100
2023-02-22T09:14:24.963Z,105
2023-02-22T09:15:24.992Z,105
2023-02-22T09:16:25.012Z,105
2023-02-22T09:17:24.668Z,105
2023-02-22T09:18:26.956Z,110
2023-02-22T09:19:24.610Z,110
2023-02-22T09:20:25.004Z,110
2023-02-22T09:21:25.748Z,110
2023-02-22T09:22:24.371Z,115
2023-02-22T09:23:26.423Z,120
2023-02-22T09:24:24.345Z,120
2023-02-22T09:25:27.132Z,130
2023-02-22T09:26:24.330Z,130
2023-02-22T09:27:24.529Z,130
2023-02-22T09:28:24.792Z,145
2023-02-22T09:29:24.498Z,155
2023-02-22T09:30:25.102Z,145
2023-02-22T09:31:26.402Z,150
2023-02-22T09:32:25.149Z,155
2023-02-22T09:33:24.439Z,165
2023-02-22T09:34:24.443Z,155
2023-02-22T09:35:24.428Z,145
2023-02-22T09:36:27.251Z,135
2023-02-22T09:37:24.662Z,135
2023-02-22T09:38:24.756Z,130
2023-02-22T09:39:24.686Z,130
2023-02-22T09:40:24.735Z,130
2023-02-22T09:41:25.608Z,135
2023-02-22T09:42:24.600Z,140
2023-02-22T09:43:24.328Z,135
2023-02-22T09:44:24.884Z,135
2023-02-22T09:45:24.575Z,135
2023-02-22T09:46:25.908Z,145
2023-02-22T09:47:24.534Z,150
2023-02-22T09:48:31.405Z,145
2023-02-22T09:49:24.286Z,145
2023-02-22T09:50:24.538Z,135
2023-02-22T09:51:24.135Z,135
2023-02-22T09:52:24.232Z,130
2023-02-22T09:53:26.187Z,130
2023-02-22T09:54:23.997Z,135
2023-02-22T09:55:24.464Z,130
2023-02-22T09:56:25.804Z,130
2023-02-22T09:57:24.855Z,130
2023-02-22T09:58:24.220Z,115
2023-02-22T09:59:23.649Z,110
2023-02-22T10:00:24.175Z,115
2023-02-22T10:01:23.886Z,120
2023-02-22T10:02:24.120Z,125
2023-02-22T10:03:26.099Z,135
2023-02-22T10:04:24.098Z,150
2023-02-22T10:05:24.545Z,145
2023-02-22T10:06:24.445Z,155
2023-02-22T10:07:24.199Z,155
2023-02-22T10:08:24.133Z,135
2023-02-22T10:09:24.324Z,135
2023-02-22T10:10:23.780Z,150
2023-02-22T10:11:24.048Z,165
2023-02-22T10:12:24.280Z,175
2023-02-22T10:13:24.438Z,180
2023-02-22T10:14:23.748Z,175
2023-02-22T10:15:24.286Z,180
2023-02-22T10:16:25.086Z,195
2023-02-22T10:17:23.996Z,205
2023-02-22T10:18:25.229Z,215
2023-02-22T10:19:23.976Z,215
2023-02-22T10:20:24.265Z,215
2023-02-22T10:21:23.422Z,210
2023-02-22T10:22:24.221Z,210
2023-02-22T10:23:23.656Z,210
2023-02-22T10:24:23.656Z,210
2023-02-22T10:25:23.665Z,205
2023-02-22T10:26:25.276Z,205
2023-02-22T10:27:23.625Z,200
2023-02-22T10:28:23.776Z,195
2023-02-22T10:29:24.299Z,195
2023-02-22T10:30:36.336Z,190
2023-02-22T10:31:24.824Z,190
2023-02-22T10:32:24.502Z,185
2023-02-22T10:33:23.557Z,185
2023-02-22T10:34:24.042Z,185
2023-02-22T10:35:24.042Z,190
2023-02-22T10:36:24.309Z,205
2023-02-22T10:37:24.003Z,210
2023-02-22T10:38:23.289Z,205
2023-02-22T10:39:23.971Z,195
2023-02-22T10:40:23.552Z,185
2023-02-22T10:41:25.826Z,185
2023-02-22T10:42:23.973Z,160
2023-02-22T10:43:23.500Z,145
2023-02-22T10:44:23.958Z,145
2023-02-22T10:45:24.217Z,140
2023-02-22T10:46:25.040Z,140
2023-02-22T10:47:29.092Z,140
2023-02-22T10:48:23.651Z,135
2023-02-22T10:49:23.634Z,135
2023-02-22T10:50:23.979Z,130
2023-02-22T10:51:23.623Z,125
2023-02-22T10:52:23.378Z,115
2023-02-22T10:53:23.886Z,110
2023-02-22T10:54:23.617Z,120
2023-02-22T10:55:25.279Z,120
2023-02-22T10:56:24.579Z,125
2023-02-22T10:57:23.310Z,130
2023-02-22T10:58:23.797Z,125
2023-02-22T10:59:24.848Z,125
2023-02-22T11:00:23.549Z,115
2023-02-22T11:01:25.103Z,125
2023-02-22T11:02:23.261Z,125
2023-02-22T11:03:23.299Z,125
2023-02-22T11:04:23.087Z,120
2023-02-22T11:05:24.066Z,120
2023-02-22T11:06:23.968Z,120
2023-02-22T11:07:23.716Z,120
2023-02-22T11:08:23.464Z,125
2023-02-22T11:09:23.483Z,125
2023-02-22T11:10:23.173Z,135
2023-02-22T11:11:23.980Z,150
2023-02-22T11:12:23.455Z,145
2023-02-22T11:13:23.451Z,140
2023-02-22T11:14:23.386Z,135
2023-02-22T11:15:23.697Z,135
2023-02-22T11:16:23.453Z,125
2023-02-22T11:17:23.914Z,130
2023-02-22T11:18:22.831Z,140
2023-02-22T11:19:23.354Z,140
2023-02-22T11:20:23.397Z,140
2023-02-22T11:21:24.372Z,150
2023-02-22T11:22:23.417Z,165
2023-02-22T11:23:23.084Z,165
2023-02-22T11:24:22.997Z,150
2023-02-22T11:25:23.264Z,155
2023-02-22T11:26:23.522Z,155
2023-02-22T11:27:23.254Z,130
2023-02-22T11:28:23.012Z,130
2023-02-22T11:29:23.245Z,130
2023-02-22T11:30:23.749Z,130
2023-02-22T11:31:24.568Z,135
2023-02-22T11:32:23.394Z,145
2023-02-22T11:33:23.999Z,150
2023-02-22T11:34:23.183Z,150
2023-02-22T11:35:24.690Z,145
2023-02-22T11:36:23.166Z,145
2023-02-22T11:37:23.430Z,140
2023-02-22T11:38:23.628Z,130
2023-02-22T11:39:23.304Z,125
2023-02-22T11:40:23.202Z,125
2023-02-22T11:41:24.565Z,120
2023-02-22T11:42:23.292Z,125
2023-02-22T11:43:22.914Z,125
2023-02-22T11:44:23.115Z,135
2023-02-22T11:45:23.200Z,140
2023-02-22T11:46:23.455Z,135
2023-02-22T11:47:22.795Z,145
2023-02-22T11:48:23.054Z,135
2023-02-22T11:49:23.815Z,135
2023-02-22T11:50:23.017Z,135
2023-02-22T11:51:25.238Z,135
2023-02-22T11:52:24.288Z,155
2023-02-22T11:53:23.010Z,160
2023-02-22T11:54:22.991Z,155
2023-02-22T11:55:41.676Z,140
2023-02-22T11:56:41.045Z,135
2023-02-22T11:57:23.011Z,145
2023-02-22T11:58:23.290Z,140
2023-02-22T11:59:22.961Z,140
2023-02-22T12:00:23.417Z,135
2023-02-22T12:01:22.705Z,135
2023-02-22T12:02:22.655Z,140
2023-02-22T12:03:23.109Z,150
2023-02-22T12:04:23.530Z,150
2023-02-22T12:05:23.585Z,170
2023-02-22T12:06:23.677Z,180
2023-02-22T12:07:22.895Z,180
2023-02-22T12:08:29.177Z,195
2023-02-22T12:09:22.858Z,195
2023-02-22T12:10:22.878Z,190
2023-02-22T12:11:22.557Z,185
2023-02-22T12:12:22.809Z,180
2023-02-22T12:13:22.805Z,175
2023-02-22T12:14:22.538Z,175
2023-02-22T12:15:22.630Z,180
2023-02-22T12:16:23.793Z,180
2023-02-22T12:17:23.030Z,180
2023-02-22T12:18:22.759Z,170
2023-02-22T12:19:22.529Z,165
2023-02-22T12:20:22.796Z,165
2023-02-22T12:21:23.177Z,160
2023-02-22T12:22:22.791Z,170
2023-02-22T12:23:22.743Z,180
2023-02-22T12:24:23.005Z,190
2023-02-22T12:25:22.692Z,205
2023-02-22T12:26:23.376Z,205
2023-02-22T12:27:23.214Z,205
2023-02-22T12:28:34.364Z,200
2023-02-22T12:29:22.467Z,200
2023-02-22T12:30:23.365Z,210
2023-02-22T12:31:24.144Z,215
2023-02-22T12:32:23.684Z,220
2023-02-22T12:33:22.909Z,220
2023-02-22T12:34:22.836Z,215
2023-02-22T12:35:22.423Z,205
2023-02-22T12:36:22.871Z,195
2023-02-22T12:37:23.105Z,175
2023-02-22T12:38:22.597Z,170
2023-02-22T12:39:22.568Z,170
2023-02-22T12:40:22.557Z,170
2023-02-22T12:41:23.632Z,170
2023-02-22T12:42:22.552Z,165
2023-02-22T12:43:22.524Z,165
2023-02-22T12:44:22.815Z,170
2023-02-22T12:45:22.283Z,175
2023-02-22T12:46:23.014Z,180
2023-02-22T12:47:23.079Z,175
2023-02-22T12:48:22.756Z,180
2023-02-22T12:49:22.489Z,180
2023-02-22T12:50:25.553Z,175
2023-02-22T12:51:23.285Z,175
2023-02-22T12:52:31.517Z,175
2023-02-22T12:53:22.999Z,170
2023-02-22T12:54:22.226Z,170
2023-02-22T12:55:22.690Z,170
2023-02-22T12:56:22.959Z,170
2023-02-22T12:57:22.965Z,175
2023-02-22T12:58:22.693Z,175
2023-02-22T12:59:22.686Z,175
2023-02-22T13:00:22.405Z,175
2023-02-22T13:01:24.437Z,175
2023-02-22T13:02:22.937Z,175
2023-02-22T13:03:22.399Z,175
2023-02-22T13:04:30.585Z,175
2023-02-22T13:05:23.418Z,175
2023-02-22T13:06:22.618Z,175
2023-02-22T13:07:22.598Z,175
2023-02-22T13:08:22.689Z,180
2023-02-22T13:09:22.591Z,185
2023-02-22T13:10:22.547Z,185
2023-02-22T13:11:23.357Z,185
2023-02-22T13:12:22.528Z,185
2023-02-22T13:13:22.663Z,185
2023-02-22T13:14:22.893Z,180
2023-02-22T13:15:22.796Z,180
2023-02-22T13:16:22.573Z,180
2023-02-22T13:17:22.500Z,180
2023-02-22T13:18:22.890Z,180
2023-02-22T13:19:22.727Z,175
2023-02-22T13:20:22.470Z,175
2023-02-22T13:21:23.056Z,175
2023-02-22T13:22:24.542Z,170
2023-02-22T13:23:22.733Z,175
2023-02-22T13:24:22.603Z,185
2023-02-22T13:25:22.466Z,190
2023-02-22T13:26:22.457Z,195
2023-02-22T13:27:22.413Z,185
2023-02-22T13:28:22.902Z,185
2023-02-22T13:29:22.450Z,180
2023-02-22T13:30:22.451Z,180
2023-02-22T13:31:23.329Z,180
2023-02-22T13:32:23.182Z,180
2023-02-22T13:33:21.864Z,185
2023-02-22T13:34:21.625Z,185
2023-02-22T13:35:22.590Z,185
2023-02-22T13:36:23.860Z,185
2023-02-22T13:37:22.633Z,185
2023-02-22T13:38:22.345Z,180
2023-02-22T13:39:22.332Z,180
2023-02-22T13:40:22.423Z,175
2023-02-22T13:41:23.346Z,175
2023-02-22T13:42:22.269Z,170
2023-02-22T13:43:22.148Z,165
2023-02-22T13:44:21.747Z,165
2023-02-22T13:45:21.751Z,165
2023-02-22T13:46:23.650Z,170
2023-02-22T13:47:22.225Z,165
2023-02-22T13:48:22.295Z,165
2023-02-22T13:49:23.105Z,160
2023-02-22T13:50:22.453Z,165
2023-02-22T13:51:21.702Z,165
2023-02-22T13:52:22.209Z,165
2023-02-22T13:53:22.519Z,165
2023-02-22T13:54:21.931Z,165
2023-02-22T13:55:22.173Z,165
2023-02-22T13:56:23.594Z,165
2023-02-22T13:57:22.211Z,160
2023-02-22T13:58:22.143Z,160
2023-02-22T13:59:21.862Z,160
2023-02-22T14:00:22.294Z,155
2023-02-22T14:01:22.385Z,155
2023-02-22T14:02:21.836Z,150
2023-02-22T14:03:22.423Z,150
2023-02-22T14:04:22.393Z,145
2023-02-22T14:05:22.425Z,145
2023-02-22T14:06:22.490Z,140
2023-02-22T14:07:21.801Z,140
2023-02-22T14:08:22.155Z,140
2023-02-22T14:09:21.795Z,140
2023-02-22T14:10:22.305Z,140
2023-02-22T14:11:22.344Z,140
2023-02-22T14:12:22.381Z,135
2023-02-22T14:13:22.150Z,135
2023-02-22T14:14:21.736Z,135
2023-02-22T14:15:38.490Z,135
2023-02-22T14:16:23.617Z,135
2023-02-22T14:17:21.998Z,135
2023-02-22T14:18:21.965Z,135
2023-02-22T14:19:21.953Z,135
2023-02-22T14:20:22.219Z,130
2023-02-22T14:21:21.731Z,130
2023-02-22T14:22:21.675Z,125
2023-02-22T14:23:21.921Z,130
2023-02-22T14:24:21.817Z,130
2023-02-22T14:25:35.268Z,135
2023-02-22T14:26:23.185Z,135
2023-02-22T14:27:21.874Z,135
2023-02-22T14:28:22.617Z,135
2023-02-22T14:29:22.376Z,135
2023-02-22T14:30:21.778Z,130
2023-02-22T14:31:43.019Z,130